sensor_id;sensor_type;location;lat;lon;timestamp;P1;durP1;ratioP1;P2;durP2;ratioP2
64834;SDS011;51293;59.296;18.006;2022-11-20T00:00:37;2.28;;;1.75;;
64834;SDS011;51293;59.296;18.006;2022-11-20T00:03:03;3.05;;;2.00;;
64834;SDS011;51293;59.296;18.006;2022-11-20T00:05:28;3.08;;;2.03;;
64834;SDS011;51293;59.296;18.006;2022-11-20T00:07:53;3.47;;;2.10;;
64834;SDS011;51293;59.296;18.006;2022-11-20T00:10:19;3.20;;;2.05;;
64834;SDS011;51293;59.296;18.006;2022-11-20T00:12:44;3.85;;;1.88;;
64834;SDS011;51293;59.296;18.006;2022-11-20T00:15:09;3.25;;;2.08;;
64834;SDS011;51293;59.296;18.006;2022-11-20T00:17:35;3.10;;;2.10;;
64834;SDS011;51293;59.296;18.006;2022-11-20T00:20:00;3.45;;;2.20;;
64834;SDS011;51293;59.296;18.006;2022-11-20T00:22:26;3.28;;;2.28;;
64834;SDS011;51293;59.296;18.006;2022-11-20T00:24:51;3.85;;;2.50;;
64834;SDS011;51293;59.296;18.006;2022-11-20T00:27:16;5.13;;;2.60;;
64834;SDS011;51293;59.296;18.006;2022-11-20T00:29:42;4.70;;;2.50;;
64834;SDS011;51293;59.296;18.006;2022-11-20T00:32:07;6.05;;;2.53;;
64834;SDS011;51293;59.296;18.006;2022-11-20T00:34:32;3.95;;;2.60;;
64834;SDS011;51293;59.296;18.006;2022-11-20T00:36:58;5.43;;;2.85;;
64834;SDS011;51293;59.296;18.006;2022-11-20T00:39:23;6.03;;;2.80;;
64834;SDS011;51293;59.296;18.006;2022-11-20T00:41:49;3.97;;;2.58;;
64834;SDS011;51293;59.296;18.006;2022-11-20T00:44:15;4.43;;;2.70;;
64834;SDS011;51293;59.296;18.006;2022-11-20T00:46:40;4.93;;;2.55;;
64834;SDS011;51293;59.296;18.006;2022-11-20T00:49:05;4.60;;;2.33;;
64834;SDS011;51293;59.296;18.006;2022-11-20T00:51:31;7.57;;;2.78;;
64834;SDS011;51293;59.296;18.006;2022-11-20T00:53:56;4.40;;;2.40;;
64834;SDS011;51293;59.296;18.006;2022-11-20T00:56:24;3.88;;;2.40;;
64834;SDS011;51293;59.296;18.006;2022-11-20T00:58:50;4.68;;;2.70;;
64834;SDS011;51293;59.296;18.006;2022-11-20T01:01:20;4.07;;;2.55;;
64834;SDS011;51293;59.296;18.006;2022-11-20T01:03:51;3.78;;;2.30;;
64834;SDS011;51293;59.296;18.006;2022-11-20T01:06:18;3.67;;;2.63;;
64834;SDS011;51293;59.296;18.006;2022-11-20T01:08:48;5.63;;;2.78;;
64834;SDS011;51293;59.296;18.006;2022-11-20T01:11:16;5.25;;;2.92;;
64834;SDS011;51293;59.296;18.006;2022-11-20T01:13:44;4.70;;;2.90;;
64834;SDS011;51293;59.296;18.006;2022-11-20T01:16:15;4.05;;;2.83;;
64834;SDS011;51293;59.296;18.006;2022-11-20T01:18:43;4.18;;;2.70;;
64834;SDS011;51293;59.296;18.006;2022-11-20T01:21:12;5.20;;;2.67;;
64834;SDS011;51293;59.296;18.006;2022-11-20T01:23:43;6.78;;;3.30;;
64834;SDS011;51293;59.296;18.006;2022-11-20T01:26:10;6.53;;;2.70;;
64834;SDS011;51293;59.296;18.006;2022-11-20T01:28:41;4.00;;;2.50;;
64834;SDS011;51293;59.296;18.006;2022-11-20T01:31:14;3.65;;;2.40;;
64834;SDS011;51293;59.296;18.006;2022-11-20T01:33:40;5.15;;;2.70;;
64834;SDS011;51293;59.296;18.006;2022-11-20T01:36:06;4.68;;;2.60;;
64834;SDS011;51293;59.296;18.006;2022-11-20T01:38:32;4.85;;;2.90;;
64834;SDS011;51293;59.296;18.006;2022-11-20T01:40:58;4.68;;;2.80;;
64834;SDS011;51293;59.296;18.006;2022-11-20T01:43:24;6.40;;;2.65;;
64834;SDS011;51293;59.296;18.006;2022-11-20T01:48:22;6.20;;;2.88;;
64834;SDS011;51293;59.296;18.006;2022-11-20T01:50:50;5.88;;;3.05;;
64834;SDS011;51293;59.296;18.006;2022-11-20T01:53:18;4.07;;;2.72;;
64834;SDS011;51293;59.296;18.006;2022-11-20T01:55:50;4.93;;;2.72;;
64834;SDS011;51293;59.296;18.006;2022-11-20T01:58:19;4.18;;;2.63;;
64834;SDS011;51293;59.296;18.006;2022-11-20T02:00:47;4.82;;;2.75;;
64834;SDS011;51293;59.296;18.006;2022-11-20T02:03:14;6.13;;;2.60;;
64834;SDS011;51293;59.296;18.006;2022-11-20T02:05:43;6.82;;;3.13;;
64834;SDS011;51293;59.296;18.006;2022-11-20T02:08:14;4.20;;;2.70;;
64834;SDS011;51293;59.296;18.006;2022-11-20T02:10:41;6.50;;;2.90;;
64834;SDS011;51293;59.296;18.006;2022-11-20T02:13:06;4.78;;;2.72;;
64834;SDS011;51293;59.296;18.006;2022-11-20T02:15:51;5.97;;;2.88;;
64834;SDS011;51293;59.296;18.006;2022-11-20T02:18:17;5.85;;;2.60;;
64834;SDS011;51293;59.296;18.006;2022-11-20T02:20:45;4.28;;;2.50;;
64834;SDS011;51293;59.296;18.006;2022-11-20T02:26:09;5.25;;;2.83;;
64834;SDS011;51293;59.296;18.006;2022-11-20T02:28:37;4.93;;;2.22;;
64834;SDS011;51293;59.296;18.006;2022-11-20T02:31:03;4.25;;;2.63;;
64834;SDS011;51293;59.296;18.006;2022-11-20T02:33:28;4.72;;;2.92;;
64834;SDS011;51293;59.296;18.006;2022-11-20T02:35:53;3.85;;;2.60;;
64834;SDS011;51293;59.296;18.006;2022-11-20T02:38:19;3.53;;;2.80;;
64834;SDS011;51293;59.296;18.006;2022-11-20T02:40:44;5.50;;;2.70;;
64834;SDS011;51293;59.296;18.006;2022-11-20T02:43:10;4.00;;;2.47;;
64834;SDS011;51293;59.296;18.006;2022-11-20T02:45:35;4.63;;;2.50;;
64834;SDS011;51293;59.296;18.006;2022-11-20T02:48:01;4.70;;;2.50;;
64834;SDS011;51293;59.296;18.006;2022-11-20T02:50:27;4.68;;;2.40;;
64834;SDS011;51293;59.296;18.006;2022-11-20T02:52:52;3.90;;;2.63;;
64834;SDS011;51293;59.296;18.006;2022-11-20T02:55:18;4.80;;;2.80;;
64834;SDS011;51293;59.296;18.006;2022-11-20T02:57:43;4.30;;;2.72;;
64834;SDS011;51293;59.296;18.006;2022-11-20T03:00:09;4.60;;;2.63;;
64834;SDS011;51293;59.296;18.006;2022-11-20T03:02:34;2.83;;;2.15;;
64834;SDS011;51293;59.296;18.006;2022-11-20T03:05:00;4.68;;;2.80;;
64834;SDS011;51293;59.296;18.006;2022-11-20T03:07:25;4.68;;;2.50;;
64834;SDS011;51293;59.296;18.006;2022-11-20T03:09:51;3.58;;;2.53;;
64834;SDS011;51293;59.296;18.006;2022-11-20T03:12:16;4.43;;;2.13;;
64834;SDS011;51293;59.296;18.006;2022-11-20T03:14:41;3.47;;;2.25;;
64834;SDS011;51293;59.296;18.006;2022-11-20T03:17:07;4.43;;;2.50;;
64834;SDS011;51293;59.296;18.006;2022-11-20T03:19:32;3.80;;;2.25;;
64834;SDS011;51293;59.296;18.006;2022-11-20T03:21:59;3.50;;;2.22;;
64834;SDS011;51293;59.296;18.006;2022-11-20T03:24:25;4.80;;;2.38;;
64834;SDS011;51293;59.296;18.006;2022-11-20T03:26:51;3.40;;;2.15;;
64834;SDS011;51293;59.296;18.006;2022-11-20T03:29:16;4.53;;;2.35;;
64834;SDS011;51293;59.296;18.006;2022-11-20T03:31:41;3.60;;;2.50;;
64834;SDS011;51293;59.296;18.006;2022-11-20T03:34:08;3.70;;;2.45;;
64834;SDS011;51293;59.296;18.006;2022-11-20T03:36:35;5.47;;;2.22;;
64834;SDS011;51293;59.296;18.006;2022-11-20T03:39:03;3.70;;;2.15;;
64834;SDS011;51293;59.296;18.006;2022-11-20T03:41:30;4.80;;;2.40;;
64834;SDS011;51293;59.296;18.006;2022-11-20T03:43:57;4.28;;;2.58;;
64834;SDS011;51293;59.296;18.006;2022-11-20T03:46:24;3.67;;;2.22;;
64834;SDS011;51293;59.296;18.006;2022-11-20T03:48:50;4.47;;;2.58;;
64834;SDS011;51293;59.296;18.006;2022-11-20T03:51:23;3.50;;;2.30;;
64834;SDS011;51293;59.296;18.006;2022-11-20T03:53:53;4.20;;;2.33;;
64834;SDS011;51293;59.296;18.006;2022-11-20T03:56:21;5.68;;;2.70;;
64834;SDS011;51293;59.296;18.006;2022-11-20T03:58:49;3.83;;;2.30;;
64834;SDS011;51293;59.296;18.006;2022-11-20T04:01:16;3.65;;;2.20;;
64834;SDS011;51293;59.296;18.006;2022-11-20T04:03:43;4.22;;;2.15;;
64834;SDS011;51293;59.296;18.006;2022-11-20T04:06:13;6.15;;;2.65;;
64834;SDS011;51293;59.296;18.006;2022-11-20T04:08:40;4.35;;;2.22;;
64834;SDS011;51293;59.296;18.006;2022-11-20T04:13:39;2.97;;;1.90;;
64834;SDS011;51293;59.296;18.006;2022-11-20T04:16:05;3.50;;;2.38;;
64834;SDS011;51293;59.296;18.006;2022-11-20T04:18:31;3.60;;;2.05;;
64834;SDS011;51293;59.296;18.006;2022-11-20T04:20:58;3.80;;;2.30;;
64834;SDS011;51293;59.296;18.006;2022-11-20T04:23:23;2.92;;;2.15;;
64834;SDS011;51293;59.296;18.006;2022-11-20T04:25:49;2.65;;;1.98;;
64834;SDS011;51293;59.296;18.006;2022-11-20T04:28:14;4.22;;;2.10;;
64834;SDS011;51293;59.296;18.006;2022-11-20T04:30:40;7.82;;;2.30;;
64834;SDS011;51293;59.296;18.006;2022-11-20T04:33:06;3.00;;;1.90;;
64834;SDS011;51293;59.296;18.006;2022-11-20T04:35:33;4.25;;;2.13;;
64834;SDS011;51293;59.296;18.006;2022-11-20T04:37:59;2.83;;;2.08;;
64834;SDS011;51293;59.296;18.006;2022-11-20T04:40:24;3.97;;;2.00;;
64834;SDS011;51293;59.296;18.006;2022-11-20T04:42:50;2.72;;;1.83;;
64834;SDS011;51293;59.296;18.006;2022-11-20T04:45:15;3.03;;;1.92;;
64834;SDS011;51293;59.296;18.006;2022-11-20T04:47:41;3.17;;;2.17;;
64834;SDS011;51293;59.296;18.006;2022-11-20T04:50:06;2.40;;;1.80;;
64834;SDS011;51293;59.296;18.006;2022-11-20T04:52:32;3.42;;;2.20;;
64834;SDS011;51293;59.296;18.006;2022-11-20T04:54:57;5.53;;;1.85;;
64834;SDS011;51293;59.296;18.006;2022-11-20T04:57:22;3.28;;;2.03;;
64834;SDS011;51293;59.296;18.006;2022-11-20T04:59:48;3.85;;;2.00;;
64834;SDS011;51293;59.296;18.006;2022-11-20T05:02:13;2.88;;;1.98;;
64834;SDS011;51293;59.296;18.006;2022-11-20T05:04:39;5.80;;;2.00;;
64834;SDS011;51293;59.296;18.006;2022-11-20T05:07:04;4.75;;;2.00;;
64834;SDS011;51293;59.296;18.006;2022-11-20T05:09:29;3.00;;;1.90;;
64834;SDS011;51293;59.296;18.006;2022-11-20T05:11:55;7.57;;;2.03;;
64834;SDS011;51293;59.296;18.006;2022-11-20T05:14:20;4.00;;;2.00;;
64834;SDS011;51293;59.296;18.006;2022-11-20T05:16:46;2.88;;;1.90;;
64834;SDS011;51293;59.296;18.006;2022-11-20T05:19:11;3.35;;;2.00;;
64834;SDS011;51293;59.296;18.006;2022-11-20T05:21:36;2.80;;;1.85;;
64834;SDS011;51293;59.296;18.006;2022-11-20T05:24:02;2.67;;;1.80;;
64834;SDS011;51293;59.296;18.006;2022-11-20T05:26:27;3.90;;;2.00;;
64834;SDS011;51293;59.296;18.006;2022-11-20T05:28:53;3.78;;;2.20;;
64834;SDS011;51293;59.296;18.006;2022-11-20T05:31:19;3.80;;;1.65;;
64834;SDS011;51293;59.296;18.006;2022-11-20T05:33:46;2.30;;;1.70;;
64834;SDS011;51293;59.296;18.006;2022-11-20T05:36:13;4.68;;;2.10;;
64834;SDS011;51293;59.296;18.006;2022-11-20T05:38:39;3.08;;;1.63;;
64834;SDS011;51293;59.296;18.006;2022-11-20T05:41:12;3.30;;;2.00;;
64834;SDS011;51293;59.296;18.006;2022-11-20T05:43:40;3.85;;;1.90;;
64834;SDS011;51293;59.296;18.006;2022-11-20T05:46:08;2.53;;;1.83;;
64834;SDS011;51293;59.296;18.006;2022-11-20T05:48:35;3.50;;;1.98;;
64834;SDS011;51293;59.296;18.006;2022-11-20T05:51:02;2.70;;;1.63;;
64834;SDS011;51293;59.296;18.006;2022-11-20T05:53:30;3.13;;;1.88;;
64834;SDS011;51293;59.296;18.006;2022-11-20T05:58:23;4.32;;;2.00;;
64834;SDS011;51293;59.296;18.006;2022-11-20T06:00:48;2.70;;;1.80;;
64834;SDS011;51293;59.296;18.006;2022-11-20T06:03:13;2.90;;;1.98;;
64834;SDS011;51293;59.296;18.006;2022-11-20T06:05:39;4.53;;;1.77;;
64834;SDS011;51293;59.296;18.006;2022-11-20T06:08:04;3.03;;;1.80;;
64834;SDS011;51293;59.296;18.006;2022-11-20T06:10:29;4.32;;;1.95;;
64834;SDS011;51293;59.296;18.006;2022-11-20T06:12:57;2.70;;;1.75;;
64834;SDS011;51293;59.296;18.006;2022-11-20T06:15:23;3.78;;;1.80;;
64834;SDS011;51293;59.296;18.006;2022-11-20T06:17:51;2.55;;;1.73;;
64834;SDS011;51293;59.296;18.006;2022-11-20T06:20:17;2.40;;;1.58;;
64834;SDS011;51293;59.296;18.006;2022-11-20T06:22:43;3.97;;;1.80;;
64834;SDS011;51293;59.296;18.006;2022-11-20T06:25:08;5.05;;;2.00;;
64834;SDS011;51293;59.296;18.006;2022-11-20T06:27:33;6.38;;;1.60;;
64834;SDS011;51293;59.296;18.006;2022-11-20T06:29:59;4.20;;;1.65;;
64834;SDS011;51293;59.296;18.006;2022-11-20T06:32:24;2.13;;;1.50;;
64834;SDS011;51293;59.296;18.006;2022-11-20T06:34:50;2.60;;;1.80;;
64834;SDS011;51293;59.296;18.006;2022-11-20T06:37:15;3.05;;;1.70;;
64834;SDS011;51293;59.296;18.006;2022-11-20T06:39:40;5.15;;;1.70;;
64834;SDS011;51293;59.296;18.006;2022-11-20T06:42:06;2.72;;;1.83;;
64834;SDS011;51293;59.296;18.006;2022-11-20T06:44:31;3.55;;;1.55;;
64834;SDS011;51293;59.296;18.006;2022-11-20T06:46:56;3.45;;;1.85;;
64834;SDS011;51293;59.296;18.006;2022-11-20T06:49:22;4.28;;;1.70;;
64834;SDS011;51293;59.296;18.006;2022-11-20T06:51:47;3.35;;;1.70;;
64834;SDS011;51293;59.296;18.006;2022-11-20T06:54:12;2.88;;;1.70;;
64834;SDS011;51293;59.296;18.006;2022-11-20T06:56:38;3.03;;;1.65;;
64834;SDS011;51293;59.296;18.006;2022-11-20T06:59:04;1.98;;;1.45;;
64834;SDS011;51293;59.296;18.006;2022-11-20T07:01:30;2.67;;;1.52;;
64834;SDS011;51293;59.296;18.006;2022-11-20T07:03:56;3.30;;;1.80;;
64834;SDS011;51293;59.296;18.006;2022-11-20T07:06:21;6.45;;;1.67;;
64834;SDS011;51293;59.296;18.006;2022-11-20T07:08:47;2.47;;;1.80;;
64834;SDS011;51293;59.296;18.006;2022-11-20T07:11:12;6.60;;;1.60;;
64834;SDS011;51293;59.296;18.006;2022-11-20T07:13:38;2.75;;;1.58;;
64834;SDS011;51293;59.296;18.006;2022-11-20T07:16:04;4.82;;;1.73;;
64834;SDS011;51293;59.296;18.006;2022-11-20T07:18:32;2.42;;;1.40;;
64834;SDS011;51293;59.296;18.006;2022-11-20T07:21:04;2.55;;;1.80;;
64834;SDS011;51293;59.296;18.006;2022-11-20T07:23:31;6.85;;;1.70;;
64834;SDS011;51293;59.296;18.006;2022-11-20T07:25:57;1.95;;;1.27;;
64834;SDS011;51293;59.296;18.006;2022-11-20T07:28:23;2.33;;;1.60;;
64834;SDS011;51293;59.296;18.006;2022-11-20T07:30:51;2.55;;;1.67;;
64834;SDS011;51293;59.296;18.006;2022-11-20T07:33:17;3.60;;;1.70;;
64834;SDS011;51293;59.296;18.006;2022-11-20T07:35:43;3.97;;;1.65;;
64834;SDS011;51293;59.296;18.006;2022-11-20T07:38:08;2.50;;;1.50;;
64834;SDS011;51293;59.296;18.006;2022-11-20T07:40:33;2.15;;;1.45;;
64834;SDS011;51293;59.296;18.006;2022-11-20T07:42:59;1.52;;;1.30;;
64834;SDS011;51293;59.296;18.006;2022-11-20T07:45:24;2.40;;;1.33;;
64834;SDS011;51293;59.296;18.006;2022-11-20T07:47:49;1.67;;;1.38;;
64834;SDS011;51293;59.296;18.006;2022-11-20T07:50:15;5.07;;;1.73;;
64834;SDS011;51293;59.296;18.006;2022-11-20T07:52:41;2.83;;;1.20;;
64834;SDS011;51293;59.296;18.006;2022-11-20T07:55:07;1.88;;;1.30;;
64834;SDS011;51293;59.296;18.006;2022-11-20T07:57:33;2.42;;;1.40;;
64834;SDS011;51293;59.296;18.006;2022-11-20T07:59:59;2.20;;;1.35;;
64834;SDS011;51293;59.296;18.006;2022-11-20T08:02:24;3.58;;;1.40;;
64834;SDS011;51293;59.296;18.006;2022-11-20T08:04:50;2.90;;;1.45;;
64834;SDS011;51293;59.296;18.006;2022-11-20T08:07:15;3.88;;;1.30;;
64834;SDS011;51293;59.296;18.006;2022-11-20T08:09:41;3.67;;;1.45;;
64834;SDS011;51293;59.296;18.006;2022-11-20T08:12:06;3.47;;;1.52;;
64834;SDS011;51293;59.296;18.006;2022-11-20T08:17:15;2.45;;;1.20;;
64834;SDS011;51293;59.296;18.006;2022-11-20T08:19:41;1.88;;;1.27;;
64834;SDS011;51293;59.296;18.006;2022-11-20T08:22:06;1.33;;;1.02;;
64834;SDS011;51293;59.296;18.006;2022-11-20T08:24:32;3.63;;;1.17;;
64834;SDS011;51293;59.296;18.006;2022-11-20T08:26:58;1.50;;;1.10;;
64834;SDS011;51293;59.296;18.006;2022-11-20T08:29:26;2.72;;;1.20;;
64834;SDS011;51293;59.296;18.006;2022-11-20T08:31:52;3.78;;;1.95;;
64834;SDS011;51293;59.296;18.006;2022-11-20T08:34:17;3.42;;;1.50;;
64834;SDS011;51293;59.296;18.006;2022-11-20T08:36:43;1.38;;;1.00;;
64834;SDS011;51293;59.296;18.006;2022-11-20T08:39:10;1.95;;;1.20;;
64834;SDS011;51293;59.296;18.006;2022-11-20T08:41:37;2.17;;;1.13;;
64834;SDS011;51293;59.296;18.006;2022-11-20T08:44:03;3.55;;;1.30;;
64834;SDS011;51293;59.296;18.006;2022-11-20T08:46:39;1.60;;;1.20;;
64834;SDS011;51293;59.296;18.006;2022-11-20T08:49:07;1.40;;;1.20;;
64834;SDS011;51293;59.296;18.006;2022-11-20T08:51:34;3.67;;;1.50;;
64834;SDS011;51293;59.296;18.006;2022-11-20T08:54:00;3.25;;;1.48;;
64834;SDS011;51293;59.296;18.006;2022-11-20T08:56:25;3.17;;;1.35;;
64834;SDS011;51293;59.296;18.006;2022-11-20T08:58:51;1.77;;;1.40;;
64834;SDS011;51293;59.296;18.006;2022-11-20T09:01:20;3.30;;;1.50;;
64834;SDS011;51293;59.296;18.006;2022-11-20T09:03:46;2.05;;;1.30;;
64834;SDS011;51293;59.296;18.006;2022-11-20T09:06:12;2.17;;;1.30;;
64834;SDS011;51293;59.296;18.006;2022-11-20T09:08:38;4.10;;;1.60;;
64834;SDS011;51293;59.296;18.006;2022-11-20T09:11:03;3.85;;;1.20;;
64834;SDS011;51293;59.296;18.006;2022-11-20T09:13:29;2.53;;;1.20;;
64834;SDS011;51293;59.296;18.006;2022-11-20T09:15:57;1.65;;;1.23;;
64834;SDS011;51293;59.296;18.006;2022-11-20T09:18:28;1.55;;;1.10;;
64834;SDS011;51293;59.296;18.006;2022-11-20T09:20:57;5.30;;;1.45;;
64834;SDS011;51293;59.296;18.006;2022-11-20T09:23:23;3.38;;;1.40;;
64834;SDS011;51293;59.296;18.006;2022-11-20T09:25:49;2.22;;;1.27;;
64834;SDS011;51293;59.296;18.006;2022-11-20T09:28:15;2.03;;;1.25;;
64834;SDS011;51293;59.296;18.006;2022-11-20T09:30:41;2.60;;;1.35;;
64834;SDS011;51293;59.296;18.006;2022-11-20T09:33:06;2.20;;;1.10;;
64834;SDS011;51293;59.296;18.006;2022-11-20T09:35:32;1.95;;;1.30;;
64834;SDS011;51293;59.296;18.006;2022-11-20T09:37:58;3.65;;;1.35;;
64834;SDS011;51293;59.296;18.006;2022-11-20T09:40:28;5.50;;;1.30;;
64834;SDS011;51293;59.296;18.006;2022-11-20T09:42:59;3.22;;;1.40;;
64834;SDS011;51293;59.296;18.006;2022-11-20T09:58:59;3.30;;;1.30;;
64834;SDS011;51293;59.296;18.006;2022-11-20T10:01:31;2.50;;;1.40;;
64834;SDS011;51293;59.296;18.006;2022-11-20T10:04:08;2.42;;;1.30;;
64834;SDS011;51293;59.296;18.006;2022-11-20T10:09:22;2.10;;;1.25;;
64834;SDS011;51293;59.296;18.006;2022-11-20T10:12:04;4.07;;;1.55;;
64834;SDS011;51293;59.296;18.006;2022-11-20T10:23:39;1.80;;;1.25;;
64834;SDS011;51293;59.296;18.006;2022-11-20T10:31:28;1.35;;;1.13;;
64834;SDS011;51293;59.296;18.006;2022-11-20T10:33:59;2.30;;;1.10;;
64834;SDS011;51293;59.296;18.006;2022-11-20T10:36:38;2.08;;;1.30;;
64834;SDS011;51293;59.296;18.006;2022-11-20T10:39:23;2.95;;;1.27;;
64834;SDS011;51293;59.296;18.006;2022-11-20T10:41:50;2.25;;;1.10;;
64834;SDS011;51293;59.296;18.006;2022-11-20T10:44:22;4.80;;;1.10;;
64834;SDS011;51293;59.296;18.006;2022-11-20T10:47:12;1.80;;;1.20;;
64834;SDS011;51293;59.296;18.006;2022-11-20T10:49:46;2.55;;;1.20;;
64834;SDS011;51293;59.296;18.006;2022-11-20T11:00:08;2.42;;;1.25;;
64834;SDS011;51293;59.296;18.006;2022-11-20T11:02:42;1.45;;;1.02;;
64834;SDS011;51293;59.296;18.006;2022-11-20T11:08:00;2.30;;;1.30;;
64834;SDS011;51293;59.296;18.006;2022-11-20T11:10:28;1.90;;;1.20;;
64834;SDS011;51293;59.296;18.006;2022-11-20T11:13:00;2.47;;;1.30;;
64834;SDS011;51293;59.296;18.006;2022-11-20T11:15:36;1.70;;;1.00;;
64834;SDS011;51293;59.296;18.006;2022-11-20T11:18:03;1.80;;;1.20;;
64834;SDS011;51293;59.296;18.006;2022-11-20T11:20:29;2.10;;;1.25;;
64834;SDS011;51293;59.296;18.006;2022-11-20T11:22:58;2.75;;;1.40;;
64834;SDS011;51293;59.296;18.006;2022-11-20T11:25:28;5.20;;;1.50;;
64834;SDS011;51293;59.296;18.006;2022-11-20T11:27:59;2.80;;;1.60;;
64834;SDS011;51293;59.296;18.006;2022-11-20T11:30:45;3.15;;;1.23;;
64834;SDS011;51293;59.296;18.006;2022-11-20T11:33:30;2.45;;;1.20;;
64834;SDS011;51293;59.296;18.006;2022-11-20T11:36:02;2.50;;;1.23;;
64834;SDS011;51293;59.296;18.006;2022-11-20T11:38:39;4.97;;;1.50;;
64834;SDS011;51293;59.296;18.006;2022-11-20T11:41:11;3.60;;;1.23;;
64834;SDS011;51293;59.296;18.006;2022-11-20T11:43:56;3.03;;;1.48;;
64834;SDS011;51293;59.296;18.006;2022-11-20T11:46:44;3.90;;;1.50;;
64834;SDS011;51293;59.296;18.006;2022-11-20T11:49:18;2.70;;;1.50;;
64834;SDS011;51293;59.296;18.006;2022-11-20T11:51:51;1.98;;;1.40;;
64834;SDS011;51293;59.296;18.006;2022-11-20T11:54:38;2.17;;;1.33;;
64834;SDS011;51293;59.296;18.006;2022-11-20T11:57:20;3.47;;;1.23;;
64834;SDS011;51293;59.296;18.006;2022-11-20T12:00:05;1.83;;;1.27;;
64834;SDS011;51293;59.296;18.006;2022-11-20T12:07:50;2.97;;;1.30;;
64834;SDS011;51293;59.296;18.006;2022-11-20T12:10:21;2.38;;;1.30;;
64834;SDS011;51293;59.296;18.006;2022-11-20T12:12:58;1.80;;;1.30;;
64834;SDS011;51293;59.296;18.006;2022-11-20T12:15:30;1.75;;;1.20;;
64834;SDS011;51293;59.296;18.006;2022-11-20T12:17:58;3.08;;;1.20;;
64834;SDS011;51293;59.296;18.006;2022-11-20T12:20:27;3.28;;;1.45;;
64834;SDS011;51293;59.296;18.006;2022-11-20T12:23:21;1.60;;;1.13;;
64834;SDS011;51293;59.296;18.006;2022-11-20T12:25:54;2.78;;;1.30;;
64834;SDS011;51293;59.296;18.006;2022-11-20T12:36:56;3.13;;;1.10;;
64834;SDS011;51293;59.296;18.006;2022-11-20T12:39:35;1.50;;;1.10;;
64834;SDS011;51293;59.296;18.006;2022-11-20T12:42:34;1.48;;;1.05;;
64834;SDS011;51293;59.296;18.006;2022-11-20T12:50:53;3.35;;;1.42;;
64834;SDS011;51293;59.296;18.006;2022-11-20T13:04:18;4.15;;;1.98;;
64834;SDS011;51293;59.296;18.006;2022-11-20T13:07:05;7.07;;;2.17;;
64834;SDS011;51293;59.296;18.006;2022-11-20T13:09:33;2.72;;;1.83;;
64834;SDS011;51293;59.296;18.006;2022-11-20T13:12:15;4.30;;;2.10;;
64834;SDS011;51293;59.296;18.006;2022-11-20T13:14:53;5.90;;;2.35;;
64834;SDS011;51293;59.296;18.006;2022-11-20T13:20:13;3.70;;;2.13;;
64834;SDS011;51293;59.296;18.006;2022-11-20T13:22:42;5.15;;;2.28;;
64834;SDS011;51293;59.296;18.006;2022-11-20T13:25:21;4.18;;;2.10;;
64834;SDS011;51293;59.296;18.006;2022-11-20T13:27:50;3.50;;;2.03;;
64834;SDS011;51293;59.296;18.006;2022-11-20T13:30:18;5.38;;;2.20;;
64834;SDS011;51293;59.296;18.006;2022-11-20T13:32:55;8.43;;;2.20;;
64834;SDS011;51293;59.296;18.006;2022-11-20T13:37:59;4.18;;;2.13;;
64834;SDS011;51293;59.296;18.006;2022-11-20T13:40:27;3.38;;;2.17;;
64834;SDS011;51293;59.296;18.006;2022-11-20T13:43:14;4.72;;;2.20;;
64834;SDS011;51293;59.296;18.006;2022-11-20T13:45:41;5.22;;;2.20;;
64834;SDS011;51293;59.296;18.006;2022-11-20T13:48:22;3.35;;;2.03;;
64834;SDS011;51293;59.296;18.006;2022-11-20T13:51:03;2.95;;;1.95;;
64834;SDS011;51293;59.296;18.006;2022-11-20T14:02:09;5.88;;;1.98;;
64834;SDS011;51293;59.296;18.006;2022-11-20T14:04:38;2.95;;;1.60;;
64834;SDS011;51293;59.296;18.006;2022-11-20T14:07:14;5.03;;;1.65;;
64834;SDS011;51293;59.296;18.006;2022-11-20T14:09:49;2.63;;;1.83;;
64834;SDS011;51293;59.296;18.006;2022-11-20T14:12:20;2.50;;;1.52;;
64834;SDS011;51293;59.296;18.006;2022-11-20T14:14:48;4.20;;;1.60;;
64834;SDS011;51293;59.296;18.006;2022-11-20T14:17:19;1.92;;;1.42;;
64834;SDS011;51293;59.296;18.006;2022-11-20T14:19:47;1.83;;;1.30;;
64834;SDS011;51293;59.296;18.006;2022-11-20T14:25:00;3.20;;;1.30;;
64834;SDS011;51293;59.296;18.006;2022-11-20T14:27:26;3.03;;;1.38;;
64834;SDS011;51293;59.296;18.006;2022-11-20T14:29:52;2.97;;;1.40;;
64834;SDS011;51293;59.296;18.006;2022-11-20T14:32:17;2.53;;;1.30;;
64834;SDS011;51293;59.296;18.006;2022-11-20T14:34:47;2.30;;;1.27;;
64834;SDS011;51293;59.296;18.006;2022-11-20T14:37:24;2.40;;;1.23;;
64834;SDS011;51293;59.296;18.006;2022-11-20T14:39:54;4.78;;;1.40;;
64834;SDS011;51293;59.296;18.006;2022-11-20T14:42:22;3.00;;;1.60;;
64834;SDS011;51293;59.296;18.006;2022-11-20T14:44:50;3.65;;;1.33;;
64834;SDS011;51293;59.296;18.006;2022-11-20T14:47:18;2.88;;;1.40;;
64834;SDS011;51293;59.296;18.006;2022-11-20T14:49:46;2.35;;;1.38;;
64834;SDS011;51293;59.296;18.006;2022-11-20T14:52:20;3.22;;;1.50;;
64834;SDS011;51293;59.296;18.006;2022-11-20T14:54:48;7.05;;;1.70;;
64834;SDS011;51293;59.296;18.006;2022-11-20T15:02:41;2.10;;;1.40;;
64834;SDS011;51293;59.296;18.006;2022-11-20T15:05:08;2.92;;;1.60;;
64834;SDS011;51293;59.296;18.006;2022-11-20T15:07:37;5.47;;;1.80;;
64834;SDS011;51293;59.296;18.006;2022-11-20T15:10:19;4.50;;;1.73;;
64834;SDS011;51293;59.296;18.006;2022-11-20T15:12:56;3.80;;;1.80;;
64834;SDS011;51293;59.296;18.006;2022-11-20T15:18:32;3.17;;;1.73;;
64834;SDS011;51293;59.296;18.006;2022-11-20T15:21:02;6.75;;;2.03;;
64834;SDS011;51293;59.296;18.006;2022-11-20T15:23:31;3.80;;;2.00;;
64834;SDS011;51293;59.296;18.006;2022-11-20T15:25:56;5.53;;;2.08;;
64834;SDS011;51293;59.296;18.006;2022-11-20T15:31:02;5.97;;;2.20;;
64834;SDS011;51293;59.296;18.006;2022-11-20T15:33:29;3.67;;;2.15;;
64834;SDS011;51293;59.296;18.006;2022-11-20T15:35:55;4.82;;;2.00;;
64834;SDS011;51293;59.296;18.006;2022-11-20T15:38:20;3.28;;;1.92;;
64834;SDS011;51293;59.296;18.006;2022-11-20T15:40:46;3.85;;;1.98;;
64834;SDS011;51293;59.296;18.006;2022-11-20T15:43:11;5.82;;;2.00;;
64834;SDS011;51293;59.296;18.006;2022-11-20T15:48:18;4.38;;;2.20;;
64834;SDS011;51293;59.296;18.006;2022-11-20T15:51:06;2.83;;;1.73;;
64834;SDS011;51293;59.296;18.006;2022-11-20T15:53:36;3.83;;;1.80;;
64834;SDS011;51293;59.296;18.006;2022-11-20T15:56:02;3.20;;;2.17;;
64834;SDS011;51293;59.296;18.006;2022-11-20T15:58:28;3.80;;;2.00;;
64834;SDS011;51293;59.296;18.006;2022-11-20T16:00:54;2.78;;;1.80;;
64834;SDS011;51293;59.296;18.006;2022-11-20T16:03:19;4.28;;;1.90;;
64834;SDS011;51293;59.296;18.006;2022-11-20T16:05:45;2.83;;;1.75;;
64834;SDS011;51293;59.296;18.006;2022-11-20T16:08:10;4.45;;;1.70;;
64834;SDS011;51293;59.296;18.006;2022-11-20T16:10:36;2.53;;;1.58;;
64834;SDS011;51293;59.296;18.006;2022-11-20T16:13:02;2.42;;;1.58;;
64834;SDS011;51293;59.296;18.006;2022-11-20T16:15:50;5.47;;;1.88;;
64834;SDS011;51293;59.296;18.006;2022-11-20T16:18:20;3.90;;;2.00;;
64834;SDS011;51293;59.296;18.006;2022-11-20T16:20:48;6.70;;;2.25;;
64834;SDS011;51293;59.296;18.006;2022-11-20T16:23:15;4.07;;;2.22;;
64834;SDS011;51293;59.296;18.006;2022-11-20T16:25:42;4.82;;;2.50;;
64834;SDS011;51293;59.296;18.006;2022-11-20T16:28:08;5.68;;;2.88;;
64834;SDS011;51293;59.296;18.006;2022-11-20T16:30:34;5.82;;;2.83;;
64834;SDS011;51293;59.296;18.006;2022-11-20T16:33:00;8.77;;;2.58;;
64834;SDS011;51293;59.296;18.006;2022-11-20T16:35:27;5.75;;;2.47;;